Terminal Aerodrome Forecast
Issued by NWS

Home | Current Version | Previous Version | Text Only | Print | Product List | Glossary On
Versions: 1 2 3 4 5 6 7 8 9 10 11 12 13
000
FTUS44 KEPZ 281200 RRA
TAFDMN
TAF
KDMN 281201Z 2812/0112 08006KT P6SM SCT050 BKN250
     FM281700 20011KT P6SM FEW050 SCT200
     FM282000 24020G30KT P6SM BKN050
     FM010200 25010KT P6SM FEW050 SCT250=

USA.gov is the U.S. government's official web portal to all federal, state and local government web resources and services.